createdAt,value
2018-05-13T00:04:54.793Z,10.07
2018-05-13T00:09:57.418Z,11.00
2018-05-13T00:14:59.963Z,9.45
2018-05-13T00:20:03.264Z,9.95
2018-05-13T00:25:05.757Z,9.67
2018-05-13T00:30:09.158Z,9.00
2018-05-13T00:35:11.711Z,11.90
2018-05-13T00:40:14.217Z,10.47
2018-05-13T00:45:16.915Z,11.77
2018-05-13T00:50:20.154Z,10.90
2018-05-13T00:55:22.692Z,10.50
2018-05-13T01:00:25.191Z,11.10
2018-05-13T01:05:27.703Z,10.35
2018-05-13T01:10:30.202Z,10.35
2018-05-13T01:15:32.716Z,10.00
2018-05-13T01:20:35.232Z,10.23
2018-05-13T01:25:38.094Z,10.20
2018-05-13T01:30:40.631Z,10.90
2018-05-13T01:35:43.159Z,10.57
2018-05-13T01:40:45.667Z,10.50
2018-05-13T01:45:48.902Z,11.60
2018-05-13T01:50:51.403Z,10.70
2018-05-13T01:55:54.706Z,10.60
2018-05-13T02:00:57.236Z,11.70
2018-05-13T02:05:59.747Z,10.50
2018-05-13T02:11:02.300Z,11.38
2018-05-13T02:16:04.828Z,11.98
2018-05-13T02:21:07.380Z,11.23
2018-05-13T02:26:10.682Z,10.10
2018-05-13T02:31:13.237Z,11.90
2018-05-13T02:36:16.718Z,10.95
2018-05-13T02:41:19.244Z,10.93
2018-05-13T02:46:21.740Z,10.60
2018-05-13T02:51:24.253Z,11.20
2018-05-13T02:56:26.797Z,11.50
2018-05-13T03:01:29.343Z,11.20
2018-05-13T03:06:31.864Z,11.70
2018-05-13T03:11:35.142Z,11.57
2018-05-13T03:16:37.654Z,11.63
2018-05-13T03:21:40.487Z,11.70
2018-05-13T03:26:43.021Z,11.98
2018-05-13T03:31:45.529Z,12.32
2018-05-13T03:36:48.058Z,11.20
2018-05-13T03:41:50.992Z,12.77
2018-05-13T03:46:53.555Z,13.18
2018-05-13T03:51:56.107Z,12.13
2018-05-13T03:56:58.668Z,13.00
2018-05-13T04:02:01.249Z,11.93
2018-05-13T04:07:04.465Z,11.90
2018-05-13T04:12:19.735Z,13.10
2018-05-13T04:17:23.331Z,12.98
2018-05-13T04:22:27.665Z,11.12
2018-05-13T04:27:30.981Z,11.30
2018-05-13T04:32:33.569Z,11.50
2018-05-13T04:37:36.943Z,11.88
2018-05-13T04:42:39.487Z,11.63
2018-05-13T04:47:42.115Z,11.80
2018-05-13T04:52:44.728Z,12.30
2018-05-13T04:57:47.305Z,11.73
2018-05-13T05:02:49.884Z,12.13
2018-05-13T05:07:52.518Z,12.23
2018-05-13T05:12:55.872Z,12.85
2018-05-13T05:17:58.472Z,12.90
2018-05-13T05:23:01.069Z,13.87
2018-05-13T05:28:03.687Z,13.15
2018-05-13T05:33:06.360Z,12.45
2018-05-13T05:38:09.044Z,13.40
2018-05-13T05:43:11.670Z,12.27
2018-05-13T05:48:14.353Z,12.82
2018-05-13T05:53:16.987Z,11.07
2018-05-13T05:58:19.618Z,11.53
2018-05-13T06:03:23.048Z,12.20
2018-05-13T06:08:25.666Z,12.00
2018-05-13T06:13:28.300Z,12.10
2018-05-13T06:18:30.922Z,11.33
2018-05-13T06:23:34.431Z,12.85
2018-05-13T06:28:37.089Z,12.70
2018-05-13T06:33:39.822Z,11.20
2018-05-13T06:38:42.550Z,11.88
2018-05-13T06:43:45.221Z,11.60
2018-05-13T06:48:48.717Z,10.65
2018-05-13T06:53:51.385Z,12.73
2018-05-13T06:58:54.651Z,11.25
2018-05-13T07:03:58.170Z,11.88
2018-05-13T07:09:00.852Z,11.10
2018-05-13T07:14:03.525Z,12.10
2018-05-13T07:19:08.603Z,13.33
2018-05-13T07:24:11.246Z,13.10
2018-05-13T07:29:13.931Z,13.00
2018-05-13T07:34:17.979Z,13.17
2018-05-13T07:39:20.658Z,12.60
2018-05-13T07:49:49.323Z,14.10
2018-05-13T07:54:51.888Z,14.20
2018-05-13T07:59:54.465Z,12.90
2018-05-13T08:04:57.004Z,11.90
2018-05-13T08:09:59.547Z,14.02
2018-05-13T08:15:02.887Z,15.03
2018-05-13T08:20:05.426Z,15.20
2018-05-13T08:25:08.686Z,13.40
2018-05-13T08:30:12.006Z,15.55
2018-05-13T08:35:14.692Z,13.48
2018-05-13T08:40:17.249Z,13.67
2018-05-13T08:45:19.791Z,13.15
2018-05-13T08:50:26.167Z,14.35
2018-05-13T09:06:18.811Z,16.20
2018-05-13T09:11:22.129Z,13.00
2018-05-13T09:16:24.662Z,14.73
2018-05-13T09:21:29.423Z,13.90
2018-05-13T09:26:31.941Z,14.10
2018-05-13T12:36:51.444Z,9.68
2018-05-13T12:41:54.017Z,11.55
2018-05-13T12:46:56.631Z,11.00
2018-05-13T12:51:59.246Z,10.43
2018-05-13T12:57:01.778Z,11.20
2018-05-13T13:02:05.078Z,10.15
2018-05-13T13:07:08.416Z,10.23
2018-05-13T13:12:10.968Z,9.93
2018-05-13T13:17:13.526Z,9.93
2018-05-13T13:22:16.102Z,11.40
2018-05-13T13:27:18.689Z,9.35
2018-05-13T13:32:21.236Z,8.45
2018-05-13T13:37:23.773Z,8.45
2018-05-13T13:42:26.389Z,8.40
2018-05-13T13:47:28.981Z,8.07
2018-05-13T13:52:31.818Z,8.30
2018-05-13T13:57:34.367Z,8.13
2018-05-13T14:02:36.926Z,8.90
2018-05-13T14:07:39.515Z,9.20
2018-05-13T14:12:42.560Z,8.70
2018-05-13T14:17:45.081Z,9.13
2018-05-13T14:22:47.623Z,8.55
2018-05-13T14:27:50.911Z,8.70
2018-05-13T14:32:53.517Z,8.40
2018-05-13T14:37:56.104Z,8.73
2018-05-13T14:42:58.564Z,9.40
2018-05-13T14:48:01.157Z,9.50
2018-05-13T14:53:03.722Z,10.33
2018-05-13T14:58:07.583Z,10.77
2018-05-13T15:03:10.918Z,10.90
2018-05-13T15:08:13.514Z,11.07
2018-05-13T15:13:16.101Z,9.00
2018-05-13T15:18:19.313Z,8.70
2018-05-13T15:23:21.899Z,7.93
2018-05-13T15:28:24.662Z,6.57
2018-05-13T15:33:27.420Z,9.32
2018-05-13T15:38:30.117Z,7.68
2018-05-13T15:43:32.859Z,6.45
2018-05-13T15:48:35.557Z,6.30
2018-05-13T15:53:38.179Z,6.30
2018-05-13T15:58:40.895Z,5.37
2018-05-13T16:03:44.371Z,6.13
2018-05-13T16:08:47.757Z,5.60
2018-05-13T16:13:50.473Z,4.60
2018-05-13T16:18:53.438Z,4.67
2018-05-13T16:23:56.165Z,5.50
2018-05-13T16:28:58.854Z,4.80
2018-05-13T16:34:02.496Z,5.00
2018-05-13T16:39:05.928Z,4.15
2018-05-13T16:44:08.603Z,4.62
2018-05-13T16:49:13.190Z,4.60
2018-05-13T16:54:16.573Z,4.57
2018-05-13T16:59:19.267Z,4.60
2018-05-13T17:04:27.988Z,5.10
2018-05-13T17:09:36.767Z,4.45
2018-05-13T17:14:39.355Z,4.90
2018-05-13T17:19:42.067Z,5.15
2018-05-13T17:24:48.599Z,5.10
2018-05-13T17:29:51.243Z,5.50
2018-05-13T17:34:53.833Z,7.73
2018-05-13T17:39:56.569Z,8.90
2018-05-13T17:44:59.286Z,9.05
2018-05-13T17:50:01.967Z,8.67
2018-05-13T17:55:05.523Z,9.00
2018-05-13T18:00:08.426Z,9.30
2018-05-13T18:05:11.059Z,9.00
2018-05-13T18:10:13.755Z,9.18
2018-05-13T18:15:17.161Z,9.77
2018-05-13T18:20:20.641Z,10.70
2018-05-13T18:25:24.059Z,10.00
2018-05-13T18:30:29.166Z,10.05
2018-05-13T18:35:31.743Z,10.30
2018-05-13T18:40:34.382Z,10.73
2018-05-13T18:45:37.077Z,11.45
2018-05-13T18:50:39.670Z,10.95
2018-05-13T18:55:42.408Z,11.18
2018-05-13T19:00:45.091Z,12.37
2018-05-13T19:05:47.698Z,10.50
2018-05-13T19:10:51.047Z,11.85
2018-05-13T19:15:54.634Z,11.88
2018-05-13T19:20:59.364Z,11.63
2018-05-13T19:26:02.282Z,12.35
2018-05-13T19:31:06.055Z,12.50
2018-05-13T19:36:10.017Z,12.55
2018-05-13T19:41:12.787Z,12.85
2018-05-13T19:46:15.987Z,13.60
2018-05-13T19:51:21.170Z,13.50
2018-05-13T19:56:24.553Z,15.50
2018-05-13T20:01:27.470Z,15.40
2018-05-13T20:06:31.499Z,15.73
2018-05-13T20:11:35.120Z,15.27
2018-05-13T20:16:38.638Z,14.70
2018-05-13T20:21:41.496Z,13.90
2018-05-13T20:26:44.369Z,16.02
2018-05-13T20:31:47.195Z,15.68
2018-05-13T20:36:49.960Z,13.30
2018-05-13T20:41:54.956Z,12.07
2018-05-13T20:46:57.796Z,10.95
2018-05-13T20:52:00.679Z,11.25
2018-05-13T20:57:04.675Z,10.10
2018-05-13T21:02:07.693Z,11.63
2018-05-13T21:07:12.516Z,9.90
2018-05-13T21:12:15.310Z,11.40
2018-05-13T21:17:18.740Z,10.00
2018-05-13T21:22:21.860Z,12.15
2018-05-13T21:27:25.219Z,9.60
2018-05-13T21:37:42.271Z,8.90
2018-05-13T21:42:49.445Z,9.00
2018-05-13T21:47:56.163Z,7.93
2018-05-13T22:00:06.626Z,9.43
2018-05-13T22:05:11.991Z,10.85
2018-05-13T22:10:27.329Z,10.65
2018-05-13T22:15:38.465Z,10.88
2018-05-13T22:20:47.520Z,11.40
2018-05-13T22:25:51.352Z,12.65
2018-05-13T22:30:55.516Z,8.07
2018-05-13T22:35:58.086Z,8.60
2018-05-13T22:41:01.429Z,9.10
2018-05-13T22:46:04.654Z,11.50
2018-05-13T22:51:07.997Z,8.02
2018-05-13T22:56:26.107Z,7.20
2018-05-13T23:01:28.850Z,7.53
2018-05-13T23:06:32.147Z,7.53
2018-05-13T23:11:37.715Z,8.10
2018-05-13T23:16:40.682Z,7.60
2018-05-13T23:21:43.289Z,8.02
2018-05-13T23:26:47.347Z,7.90
2018-05-13T23:31:50.074Z,9.23
2018-05-13T23:36:52.665Z,8.83
2018-05-13T23:41:56.040Z,9.70
2018-05-13T23:46:58.600Z,9.80
2018-05-13T23:52:01.316Z,11.05
2018-05-13T23:57:05.315Z,11.60
